Time;durP1;ratioP1;P1;durP2;ratioP2;P2;SDS_P1;SDS_P2;PMS_P1;PMS_P2;Temp;Humidity;BMP_temperature;BMP_pressure;BME280_temperature;BME280_humidity;BME280_pressure;Samples;Min_cycle;Max_cycle;Signal;HPM_P1;HPM_P2
2024/01/20 00:02:23;;;;;;;1.73;1.63;;;;;;;-142.91;100.00;56616.03;5070736;28;20198;-73
2024/01/20 00:04:50;;;;;;;1.95;1.52;;;;;;;23.25;100.00;56616.03;5071127;28;20226;-74
2024/01/20 00:07:17;;;;;;;1.90;1.70;;;;;;;23.25;100.00;56616.03;5069922;28;20202;-74
2024/01/20 00:09:43;;;;;;;1.80;1.70;;;;;;;23.25;100.00;56616.03;5069595;28;20289;-73
2024/01/20 00:12:10;;;;;;;1.90;1.80;;;;;;;23.26;100.00;56616.03;5070835;28;20669;-72
2024/01/20 00:14:37;;;;;;;1.85;1.75;;;;;;;23.26;100.00;56616.03;5070473;28;20207;-73
2024/01/20 00:17:05;;;;;;;1.75;1.65;;;;;;;23.25;100.00;56616.03;5069646;28;20711;-73
2024/01/20 00:19:31;;;;;;;1.75;1.67;;;;;;;23.26;100.00;56616.03;5069110;28;20233;-75
2024/01/20 00:21:58;;;;;;;1.48;1.48;;;;;;;23.25;100.00;56616.03;5071175;28;20299;-74
2024/01/20 00:24:24;;;;;;;1.70;1.60;;;;;;;23.26;100.00;56616.03;5068570;28;20293;-73
2024/01/20 00:26:51;;;;;;;1.75;1.65;;;;;;;23.25;100.00;56616.03;5069231;28;20285;-75
2024/01/20 00:29:18;;;;;;;1.77;1.67;;;;;;;23.25;100.00;56616.03;5068351;28;20293;-74
2024/01/20 00:31:44;;;;;;;1.70;1.60;;;;;;;23.25;100.00;56616.03;5068868;28;20675;-76
2024/01/20 00:34:12;;;;;;;1.60;1.55;;;;;;;23.26;100.00;56616.03;5068710;28;20282;-76
2024/01/20 00:36:39;;;;;;;1.55;1.45;;;;;;;23.26;100.00;56616.03;5069345;28;20289;-73
2024/01/20 00:39:06;;;;;;;1.45;1.40;;;;;;;23.26;100.00;56616.03;5068675;28;20309;-75
2024/01/20 00:41:32;;;;;;;1.40;1.30;;;;;;;23.26;100.00;56616.03;5069785;28;20289;-74
2024/01/20 00:43:59;;;;;;;1.38;1.38;;;;;;;23.26;100.00;56616.03;5070325;28;20233;-73
2024/01/20 00:46:26;;;;;;;1.60;1.50;;;;;;;23.25;100.00;56616.03;5070749;28;20218;-75
2024/01/20 00:48:52;;;;;;;3.38;1.40;;;;;;;23.25;100.00;56616.03;5070312;28;20218;-74
2024/01/20 00:51:20;;;;;;;1.55;1.45;;;;;;;23.26;100.00;56616.03;5070308;28;20746;-73
2024/01/20 00:53:47;;;;;;;1.48;1.45;;;;;;;23.26;100.00;56616.03;5070275;28;20231;-75
2024/01/20 00:56:13;;;;;;;3.63;1.40;;;;;;;23.25;100.00;56616.03;5070581;28;20767;-74
2024/01/20 00:58:40;;;;;;;1.60;1.50;;;;;;;23.25;100.00;56616.03;5070127;28;20258;-74
2024/01/20 01:01:07;;;;;;;1.83;1.73;;;;;;;23.25;100.00;56616.03;5070742;28;20397;-75
2024/01/20 01:03:33;;;;;;;1.48;1.38;;;;;;;23.25;100.00;56616.03;5069496;28;20293;-74
2024/01/20 01:06:00;;;;;;;1.40;1.38;;;;;;;23.25;100.00;56616.03;5070074;28;20233;-76
2024/01/20 01:08:28;;;;;;;1.58;1.48;;;;;;;23.25;100.00;56616.03;5070304;28;20226;-74
2024/01/20 01:10:55;;;;;;;1.90;1.80;;;;;;;23.25;100.00;56616.03;5070366;28;20747;-74
2024/01/20 01:13:22;;;;;;;1.70;1.60;;;;;;;23.25;100.00;56616.03;5070245;28;20225;-74
2024/01/20 01:15:49;;;;;;;1.50;1.40;;;;;;;23.25;100.00;56616.03;5070418;28;20198;-73
2024/01/20 01:18:15;;;;;;;1.77;1.67;;;;;;;23.25;100.00;56616.03;5068730;28;20630;-73
2024/01/20 01:20:42;;;;;;;1.65;1.55;;;;;;;23.25;100.00;56616.03;5070083;28;20226;-73
2024/01/20 01:23:09;;;;;;;2.10;2.00;;;;;;;-142.91;100.00;56616.03;5070253;28;20244;-77
2024/01/20 01:25:37;;;;;;;2.13;1.45;;;;;;;23.25;100.00;56616.03;5070096;28;20240;-75
2024/01/20 01:28:04;;;;;;;1.70;1.60;;;;;;;23.25;100.00;56616.03;5069633;28;20253;-76
2024/01/20 01:30:30;;;;;;;1.13;1.13;;;;;;;23.26;100.00;56616.03;5069679;28;20231;-74
2024/01/20 01:32:57;;;;;;;1.20;1.20;;;;;;;23.25;100.00;56616.03;5082438;28;20310;-74
2024/01/20 01:35:23;;;;;;;1.80;1.70;;;;;;;23.25;100.00;56616.03;5069766;28;20287;-73
2024/01/20 01:37:50;;;;;;;1.33;1.27;;;;;;;23.25;100.00;56616.03;5069947;28;20240;-74
2024/01/20 01:40:17;;;;;;;1.38;1.30;;;;;;;23.25;100.00;56616.03;5069562;28;20782;-77
2024/01/20 01:42:45;;;;;;;1.75;1.65;;;;;;;23.25;100.00;56616.03;5064545;28;20229;-74
2024/01/20 01:45:12;;;;;;;1.33;1.33;;;;;;;23.25;100.00;56616.03;5075226;28;20303;-73
2024/01/20 01:47:39;;;;;;;1.60;1.50;;;;;;;23.25;100.00;56616.03;5069839;28;20242;-75
2024/01/20 01:50:06;;;;;;;1.27;1.27;;;;;;;23.26;100.00;56616.03;5069644;28;20234;-75
2024/01/20 01:52:33;;;;;;;1.60;1.50;;;;;;;23.26;100.00;56616.03;5070131;28;20256;-73
2024/01/20 01:55:00;;;;;;;1.85;1.60;;;;;;;23.26;100.00;56616.03;5069635;28;20285;-73
2024/01/20 01:57:29;;;;;;;1.58;1.58;;;;;;;23.25;100.00;56616.03;5069857;28;20234;-73
2024/01/20 01:59:58;;;;;;;1.35;1.30;;;;;;;-142.91;100.00;56616.03;5069722;28;20309;-75
2024/01/20 02:02:25;;;;;;;1.30;1.30;;;;;;;23.25;100.00;56616.03;5069690;28;20202;-73
2024/01/20 02:04:52;;;;;;;1.90;1.80;;;;;;;23.25;100.00;56616.03;5057030;28;20767;-74
2024/01/20 02:07:18;;;;;;;1.67;1.65;;;;;;;23.25;100.00;56616.03;5069868;28;20234;-74
2024/01/20 02:09:45;;;;;;;2.15;2.05;;;;;;;;;;5069535;28;20294;-73
2024/01/20 02:12:13;;;;;;;1.77;1.67;;;;;;;23.25;100.00;56616.03;5069918;28;20198;-73
2024/01/20 02:14:40;;;;;;;2.25;1.60;;;;;;;23.26;100.00;56616.03;5056847;28;20198;-74
2024/01/20 02:17:08;;;;;;;2.17;2.08;;;;;;;23.25;100.00;56616.03;5069537;28;20312;-74
2024/01/20 02:19:37;;;;;;;1.55;1.52;;;;;;;23.25;100.00;56616.03;5069121;28;20253;-73
2024/01/20 02:22:09;;;;;;;1.60;1.50;;;;;;;23.25;100.00;56616.03;5069144;28;20230;-73
2024/01/20 02:24:36;;;;;;;1.80;1.70;;;;;;;23.25;100.00;56616.03;5057751;28;20233;-75
2024/01/20 02:27:04;;;;;;;1.58;1.58;;;;;;;23.26;100.00;56616.03;5067813;28;20289;-75
2024/01/20 02:29:30;;;;;;;1.77;1.70;;;;;;;-142.91;100.00;56616.03;5055689;28;20620;-74
2024/01/20 02:31:57;;;;;;;1.35;1.25;;;;;;;-142.91;100.00;56616.03;5071632;28;20320;-74
2024/01/20 02:34:23;;;;;;;5.15;1.10;;;;;;;23.25;100.00;56616.03;5071416;28;20281;-73
2024/01/20 02:36:51;;;;;;;1.63;1.52;;;;;;;23.25;100.00;56616.03;5060200;28;20285;-74
2024/01/20 02:39:19;;;;;;;1.13;1.10;;;;;;;23.26;100.00;56616.03;5065438;28;20683;-74
2024/01/20 02:41:47;;;;;;;1.10;1.10;;;;;;;23.26;100.00;56616.03;5065865;28;20225;-74
2024/01/20 02:44:14;;;;;;;1.67;1.05;;;;;;;23.25;100.00;56616.03;5070730;28;20272;-73
2024/01/20 02:46:41;;;;;;;1.05;1.05;;;;;;;23.26;100.00;56616.03;5072447;28;20660;-74
2024/01/20 02:49:07;;;;;;;1.27;1.25;;;;;;;23.25;100.00;56616.03;5061584;28;20675;-73
2024/01/20 02:51:34;;;;;;;1.02;1.02;;;;;;;-142.91;100.00;56616.03;5062978;28;20238;-74
2024/01/20 02:54:01;;;;;;;1.05;1.05;;;;;;;23.25;100.00;56616.03;5072564;28;20229;-75
2024/01/20 02:56:29;;;;;;;1.70;1.60;;;;;;;23.26;100.00;56616.03;5073107;28;20237;-74
2024/01/20 02:58:55;;;;;;;1.42;1.38;;;;;;;23.25;100.00;56616.03;5071908;28;20734;-74
2024/01/20 03:01:22;;;;;;;1.60;1.55;;;;;;;23.26;100.00;56616.03;5072022;28;20256;-73
2024/01/20 03:03:49;;;;;;;1.85;1.38;;;;;;;23.26;100.00;56616.03;5059216;28;20225;-76
2024/01/20 03:06:16;;;;;;;1.38;1.35;;;;;;;23.26;100.00;56616.03;5071987;28;20260;-73
2024/01/20 03:08:42;;;;;;;1.10;1.10;;;;;;;23.26;100.00;56616.03;5072152;28;20230;-73
2024/01/20 03:11:09;;;;;;;1.13;1.13;;;;;;;-142.91;100.00;56616.03;5059108;28;20648;-74
2024/01/20 03:13:37;;;;;;;1.42;1.38;;;;;;;23.25;100.00;56616.03;5071807;28;20198;-74
2024/01/20 03:16:04;;;;;;;2.25;1.35;;;;;;;23.25;100.00;56616.03;5072328;28;20202;-74
2024/01/20 03:18:31;;;;;;;1.42;1.33;;;;;;;23.25;100.00;56616.03;5079199;28;20246;-76
2024/01/20 03:20:57;;;;;;;1.25;1.20;;;;;;;23.26;100.00;56616.03;5077302;28;20309;-73
2024/01/20 03:23:24;;;;;;;1.65;1.55;;;;;;;-142.91;100.00;56616.03;5070354;28;20233;-74
2024/01/20 03:25:51;;;;;;;1.45;1.35;;;;;;;23.29;100.00;56616.03;5084667;28;20675;-74
2024/01/20 03:28:17;;;;;;;1.40;1.40;;;;;;;;;;5071349;28;20195;-78
2024/01/20 03:30:45;;;;;;;1.13;1.13;;;;;;;23.25;100.00;56616.03;5070991;28;20280;-72
2024/01/20 03:33:12;;;;;;;1.40;1.30;;;;;;;23.25;100.00;56616.03;5060060;28;20256;-74
2024/01/20 03:35:39;;;;;;;1.38;1.35;;;;;;;23.26;100.00;56616.03;5072026;28;20230;-74
2024/01/20 03:38:06;;;;;;;1.20;1.20;;;;;;;23.26;100.00;56616.03;5071774;28;20238;-74
2024/01/20 03:40:32;;;;;;;1.27;1.17;;;;;;;23.26;100.00;56616.03;5071329;28;20222;-73
2024/01/20 03:42:59;;;;;;;1.20;1.20;;;;;;;23.26;100.00;56616.03;5070879;28;20238;-73
2024/01/20 03:45:25;;;;;;;1.08;1.08;;;;;;;;;;5084320;28;20289;-74
2024/01/20 03:47:53;;;;;;;1.02;1.02;;;;;;;-142.91;100.00;56616.03;5071575;28;20696;-74
2024/01/20 03:50:20;;;;;;;0.80;0.80;;;;;;;-142.91;100.00;56616.03;5070862;28;20324;-73
2024/01/20 03:52:47;;;;;;;1.08;1.08;;;;;;;-142.91;100.00;56616.03;5071820;28;20229;-72
2024/01/20 03:55:12;;;;;;;1.52;1.10;;;;;;;23.25;100.00;56616.03;5071112;28;20201;-74
2024/01/20 03:57:39;;;;;;;0.98;0.98;;;;;;;-142.91;100.00;56616.03;5063759;28;20587;-73
2024/01/20 04:00:06;;;;;;;1.00;1.00;;;;;;;;;;5065270;28;20309;-75
2024/01/20 04:02:33;;;;;;;1.23;1.20;;;;;;;23.25;100.00;56616.03;5061191;28;20202;-73
2024/01/20 04:05:00;;;;;;;1.10;1.10;;;;;;;23.25;100.00;56616.03;5071718;28;20238;-73
2024/01/20 04:07:27;;;;;;;1.17;1.13;;;;;;;23.25;100.00;56616.03;5072093;28;20233;-75
2024/01/20 04:09:54;;;;;;;1.10;0.90;;;;;;;23.25;100.00;56616.03;5069305;28;20293;-73
2024/01/20 04:12:20;;;;;;;4.60;1.10;;;;;;;-142.91;100.00;56616.03;5061212;28;20293;-74
2024/01/20 04:14:47;;;;;;;1.35;1.25;;;;;;;23.26;100.00;56616.03;5058347;28;20769;-75
2024/01/20 04:17:14;;;;;;;1.17;1.08;;;;;;;23.25;100.00;56616.03;5071669;28;20237;-73
2024/01/20 04:19:40;;;;;;;1.00;1.00;;;;;;;23.25;100.00;56616.03;5070892;28;20313;-73
2024/01/20 04:22:08;;;;;;;0.88;0.88;;;;;;;23.25;100.00;56616.03;5071415;28;20254;-73
2024/01/20 04:24:35;;;;;;;1.13;1.13;;;;;;;23.25;100.00;56616.03;5069448;28;20736;-73
2024/01/20 04:27:01;;;;;;;0.82;0.82;;;;;;;23.25;100.00;56616.03;5063134;28;20199;-73
2024/01/20 04:29:28;;;;;;;0.98;0.98;;;;;;;23.26;100.00;56616.03;5054996;28;20198;-73
2024/01/20 04:31:55;;;;;;;1.02;0.93;;;;;;;-142.91;100.00;56616.03;5069414;28;20244;-73
2024/01/20 04:34:21;;;;;;;1.20;1.10;;;;;;;23.25;100.00;56616.03;5068979;28;20202;-74
2024/01/20 04:36:48;;;;;;;1.27;1.23;;;;;;;;;;5067898;28;20301;-73
2024/01/20 04:39:16;;;;;;;1.20;1.15;;;;;;;23.26;100.00;56616.03;5069238;28;20199;-74
2024/01/20 04:41:42;;;;;;;0.85;0.85;;;;;;;23.25;100.00;56616.03;5069539;28;20317;-73
2024/01/20 04:44:09;;;;;;;0.85;0.82;;;;;;;23.25;100.00;56616.03;5070721;28;20281;-73
2024/01/20 04:46:36;;;;;;;1.10;1.00;;;;;;;23.26;100.00;56616.03;5070461;28;20592;-73
2024/01/20 04:49:02;;;;;;;1.42;1.33;;;;;;;23.25;100.00;56616.03;5070443;28;20309;-74
2024/01/20 04:51:29;;;;;;;1.30;1.27;;;;;;;;;;5070771;28;20237;-74
2024/01/20 04:53:55;;;;;;;1.38;1.33;;;;;;;23.25;100.00;56616.03;5069856;28;20230;-73
2024/01/20 04:56:23;;;;;;;1.38;1.27;;;;;;;-142.91;100.00;56616.03;5070656;28;20241;-75
2024/01/20 04:58:51;;;;;;;1.50;1.40;;;;;;;-142.91;100.00;56616.03;5078839;28;20731;-75
2024/01/20 05:01:17;;;;;;;1.42;1.33;;;;;;;23.26;100.00;56616.03;5062264;28;20222;-73
2024/01/20 05:03:44;;;;;;;1.20;1.13;;;;;;;23.25;100.00;56616.03;5057096;28;20289;-75
2024/01/20 05:06:11;;;;;;;1.80;1.33;;;;;;;-142.91;100.00;56616.03;5071023;28;20285;-74
2024/01/20 05:08:37;;;;;;;1.15;1.15;;;;;;;-142.91;100.00;56616.03;5070741;28;20286;-74
2024/01/20 05:11:04;;;;;;;1.50;1.40;;;;;;;23.25;100.00;56616.03;5070228;28;20691;-74
2024/01/20 05:13:32;;;;;;;2.78;1.50;;;;;;;23.26;100.00;56616.03;5069908;28;20240;-74
2024/01/20 05:15:59;;;;;;;1.02;1.02;;;;;;;23.25;100.00;56616.03;5070611;28;20285;-73
2024/01/20 05:18:26;;;;;;;1.40;1.30;;;;;;;23.26;100.00;56616.03;5069919;28;20201;-74
2024/01/20 05:20:52;;;;;;;1.35;1.33;;;;;;;23.25;100.00;56616.03;5070264;28;20677;-73
2024/01/20 05:23:19;;;;;;;1.25;1.25;;;;;;;23.26;100.00;56616.03;5069255;28;20289;-73
2024/01/20 05:25:46;;;;;;;3.80;1.30;;;;;;;23.25;100.00;56616.03;5069627;28;20691;-74
2024/01/20 05:28:12;;;;;;;1.90;1.80;;;;;;;23.27;100.00;56616.03;5063861;28;20230;-73
2024/01/20 05:30:40;;;;;;;1.88;1.77;;;;;;;-142.91;100.00;56616.03;5064084;28;20688;-74
2024/01/20 05:33:08;;;;;;;1.45;1.38;;;;;;;-142.91;100.00;56616.03;5082479;28;20300;-72
2024/01/20 05:35:37;;;;;;;1.60;1.50;;;;;;;-142.91;100.00;56616.03;5069605;28;20226;-74
2024/01/20 05:38:04;;;;;;;1.60;1.50;;;;;;;-142.91;100.00;56616.03;5070407;28;20747;-75
2024/01/20 05:40:30;;;;;;;1.83;1.70;;;;;;;;;;5069609;28;20312;-73
2024/01/20 05:42:57;;;;;;;2.05;1.95;;;;;;;-142.91;100.00;56616.03;5069219;28;20289;-72
2024/01/20 05:45:23;;;;;;;1.95;1.85;;;;;;;;;;5069382;28;20241;-74
2024/01/20 05:47:51;;;;;;;2.03;1.65;;;;;;;-142.91;100.00;56616.03;5062523;28;20269;-73
2024/01/20 05:50:18;;;;;;;2.10;1.88;;;;;;;23.25;100.00;56616.03;5065453;28;20282;-72
2024/01/20 05:52:44;;;;;;;2.80;1.40;;;;;;;-142.91;100.00;56616.03;5069794;28;21042;-75
2024/01/20 05:55:11;;;;;;;1.50;1.35;;;;;;;23.25;100.00;56616.03;5068844;28;20285;-73
2024/01/20 05:57:38;;;;;;;2.22;2.03;;;;;;;-142.91;100.00;56616.03;5058894;28;20301;-75
2024/01/20 06:00:06;;;;;;;1.50;1.40;;;;;;;23.25;100.00;56616.03;5069868;28;20238;-73
2024/01/20 06:02:32;;;;;;;1.92;1.83;;;;;;;23.25;100.00;56616.03;5062497;28;20295;-75
2024/01/20 06:05:00;;;;;;;1.75;1.65;;;;;;;-142.91;100.00;56616.03;5066822;28;20230;-73
2024/01/20 06:07:27;;;;;;;1.60;1.50;;;;;;;23.26;100.00;56616.03;5074029;28;20204;-75
2024/01/20 06:09:53;;;;;;;1.20;1.20;;;;;;;-142.91;100.00;56616.03;5071783;28;20226;-76
2024/01/20 06:12:20;;;;;;;1.85;1.63;;;;;;;-142.91;100.00;56616.03;5063811;28;20237;-72
2024/01/20 06:14:47;;;;;;;1.75;1.65;;;;;;;-142.91;100.00;56616.03;5073631;28;20250;-73
2024/01/20 06:17:13;;;;;;;1.40;1.30;;;;;;;23.25;100.00;56616.03;5073995;28;20281;-76
2024/01/20 06:19:40;;;;;;;1.48;1.38;;;;;;;-142.91;100.00;56616.03;5073419;28;20756;-74
2024/01/20 06:22:08;;;;;;;1.63;1.52;;;;;;;-142.91;100.00;56616.03;5073576;28;20313;-73
2024/01/20 06:24:35;;;;;;;3.47;1.70;;;;;;;23.25;100.00;56616.03;5073412;28;20289;-73
2024/01/20 06:27:02;;;;;;;1.30;1.20;;;;;;;23.25;100.00;56616.03;5067969;28;20740;-76
2024/01/20 06:29:28;;;;;;;1.80;1.70;;;;;;;-142.91;100.00;56616.03;5057305;28;20209;-75
2024/01/20 06:31:55;;;;;;;1.77;1.67;;;;;;;23.25;100.00;56616.03;5073463;28;20285;-75
2024/01/20 06:34:21;;;;;;;2.65;1.40;;;;;;;23.25;100.00;56616.03;5071472;28;20654;-73
2024/01/20 06:36:48;;;;;;;3.33;1.67;;;;;;;23.25;100.00;56616.03;5071683;28;20288;-73
2024/01/20 06:39:17;;;;;;;2.03;1.92;;;;;;;23.25;100.00;56616.03;5058676;28;20713;-74
2024/01/20 06:41:45;;;;;;;2.10;1.90;;;;;;;-142.91;100.00;56616.03;5061742;28;20254;-77
2024/01/20 06:44:11;;;;;;;1.70;1.60;;;;;;;-142.91;100.00;56616.03;5069312;28;20225;-75
2024/01/20 06:46:38;;;;;;;1.70;1.60;;;;;;;-142.91;100.00;56616.03;5071465;28;20293;-74
2024/01/20 06:49:04;;;;;;;1.77;1.67;;;;;;;;;;5071153;28;20715;-75
2024/01/20 06:51:31;;;;;;;1.75;1.65;;;;;;;23.25;100.00;56616.03;5072521;28;20233;-74
2024/01/20 06:53:58;;;;;;;1.58;1.48;;;;;;;-142.91;100.00;56616.03;5072548;28;20634;-75
2024/01/20 06:56:26;;;;;;;1.70;1.60;;;;;;;-142.91;100.00;56616.03;5073139;28;20285;-75
2024/01/20 06:58:53;;;;;;;2.10;1.90;;;;;;;-142.91;100.00;56616.03;5072942;28;20244;-75
2024/01/20 07:01:19;;;;;;;1.60;1.50;;;;;;;-142.91;100.00;56616.03;5073076;28;20257;-76
2024/01/20 07:03:46;;;;;;;2.20;1.77;;;;;;;-142.91;100.00;56616.03;5072330;28;20206;-73
2024/01/20 07:06:13;;;;;;;4.72;1.50;;;;;;;;;;5072776;28;20230;-75
2024/01/20 07:08:40;;;;;;;1.98;1.65;;;;;;;-142.91;100.00;56616.03;5072939;28;20202;-74
2024/01/20 07:11:08;;;;;;;3.17;1.92;;;;;;;23.33;100.00;56616.03;5072607;28;20289;-73
2024/01/20 07:13:37;;;;;;;2.15;1.92;;;;;;;23.26;100.00;56616.03;5072693;28;20199;-74
2024/01/20 07:16:09;;;;;;;5.13;1.70;;;;;;;23.25;100.00;56616.03;5072294;28;20293;-75
2024/01/20 07:18:35;;;;;;;1.70;1.40;;;;;;;-142.91;100.00;56616.03;5070629;28;20849;-73
2024/01/20 07:21:02;;;;;;;2.15;1.55;;;;;;;-142.91;100.00;56616.03;5071305;28;20313;-74
2024/01/20 07:23:29;;;;;;;1.80;1.70;;;;;;;23.25;100.00;56616.03;5065397;28;20645;-74
2024/01/20 07:25:55;;;;;;;1.40;1.30;;;;;;;-142.91;100.00;56616.03;5066853;28;20289;-75
2024/01/20 07:28:22;;;;;;;2.05;1.90;;;;;;;-142.91;100.00;56616.03;5072224;28;20230;-74
2024/01/20 07:30:50;;;;;;;1.88;1.73;;;;;;;;;;5071674;28;20281;-75
2024/01/20 07:33:16;;;;;;;1.83;1.73;;;;;;;-142.91;100.00;56616.03;5072612;28;20282;-74
2024/01/20 07:35:43;;;;;;;1.88;1.77;;;;;;;23.25;100.00;56616.03;5071522;28;20289;-75
2024/01/20 07:38:10;;;;;;;1.83;1.73;;;;;;;-142.91;100.00;56616.03;5071424;28;20289;-74
2024/01/20 07:40:36;;;;;;;5.40;1.85;;;;;;;23.26;100.00;56616.03;5071416;28;20213;-75
2024/01/20 07:43:04;;;;;;;2.10;2.00;;;;;;;23.26;100.00;56616.03;5072597;28;20290;-74
2024/01/20 07:45:31;;;;;;;1.98;1.77;;;;;;;23.26;100.00;56616.03;5070046;28;20206;-75
2024/01/20 07:47:59;;;;;;;1.92;1.65;;;;;;;23.26;100.00;56616.03;5052934;28;20715;-75
2024/01/20 07:50:25;;;;;;;2.70;2.40;;;;;;;23.25;100.00;56616.03;5068266;28;20695;-75
2024/01/20 07:52:52;;;;;;;2.40;2.20;;;;;;;23.26;100.00;56616.03;5072109;28;20238;-74
2024/01/20 07:55:19;;;;;;;2.03;1.92;;;;;;;23.25;100.00;56616.03;5071749;28;20238;-76
2024/01/20 07:57:45;;;;;;;3.25;3.05;;;;;;;23.25;100.00;56616.03;5071200;28;20230;-74
2024/01/20 08:00:13;;;;;;;2.95;2.25;;;;;;;23.26;100.00;56616.03;5070375;28;20619;-75
2024/01/20 08:02:40;;;;;;;2.45;2.35;;;;;;;-142.91;100.00;56616.03;5062065;28;20225;-76
2024/01/20 08:05:08;;;;;;;2.50;2.30;;;;;;;-142.91;100.00;56616.03;5070551;28;20199;-73
2024/01/20 08:07:34;;;;;;;2.40;2.20;;;;;;;23.25;100.00;56616.03;5071587;28;20238;-74
2024/01/20 08:10:01;;;;;;;2.80;2.55;;;;;;;23.26;100.00;56616.03;5071235;28;20198;-73
2024/01/20 08:12:28;;;;;;;2.97;2.78;;;;;;;23.26;100.00;56616.03;5062701;28;20640;-76
2024/01/20 08:14:55;;;;;;;2.40;2.20;;;;;;;23.26;100.00;56616.03;5070287;28;20237;-73
2024/01/20 08:17:21;;;;;;;4.15;3.63;;;;;;;23.26;100.00;56616.03;5068601;28;20301;-75
2024/01/20 08:19:48;;;;;;;2.55;2.35;;;;;;;23.25;100.00;56616.03;5071302;28;20225;-76
2024/01/20 08:22:17;;;;;;;4.78;3.60;;;;;;;23.26;100.00;56616.03;5070449;28;20660;-77
2024/01/20 08:24:44;;;;;;;8.90;5.82;;;;;;;23.25;100.00;56616.03;5071294;28;20581;-74
2024/01/20 08:27:11;;;;;;;3.10;2.80;;;;;;;23.25;100.00;56616.03;5064636;28;20226;-73
2024/01/20 08:29:36;;;;;;;2.67;2.47;;;;;;;;;;5069248;28;20743;-73
2024/01/20 08:32:03;;;;;;;3.33;3.03;;;;;;;23.25;100.00;56616.03;5065274;28;20293;-74
2024/01/20 08:34:29;;;;;;;3.13;2.40;;;;;;;23.25;100.00;56616.03;5068300;28;20778;-74
2024/01/20 08:36:56;;;;;;;2.30;2.15;;;;;;;23.33;100.00;56616.03;5069273;28;20282;-76
2024/01/20 08:39:24;;;;;;;9.07;5.78;;;;;;;23.25;100.00;56616.03;5063348;28;20230;-75
2024/01/20 08:41:51;;;;;;;6.20;4.68;;;;;;;23.33;100.00;56616.03;5068632;28;20663;-72
2024/01/20 08:44:17;;;;;;;3.63;2.97;;;;;;;-142.91;100.00;56616.03;5065475;28;20280;-76
2024/01/20 08:46:45;;;;;;;3.75;3.35;;;;;;;23.33;100.00;56616.03;5068712;28;20396;-75
2024/01/20 08:49:12;;;;;;;3.00;2.80;;;;;;;-142.91;100.00;56616.03;5069026;28;20241;-75
2024/01/20 08:51:38;;;;;;;5.47;4.25;;;;;;;23.25;100.00;56616.03;5069715;28;20213;-75
2024/01/20 08:54:05;;;;;;;3.80;3.33;;;;;;;23.25;100.00;56616.03;5070381;28;20237;-76
2024/01/20 08:56:33;;;;;;;4.60;3.30;;;;;;;23.25;100.00;56616.03;5069442;28;20289;-75
2024/01/20 08:59:00;;;;;;;4.13;3.40;;;;;;;23.25;100.00;56616.03;5069774;28;20279;-80
2024/01/20 09:01:26;;;;;;;4.35;3.95;;;;;;;23.57;100.00;56616.03;5069123;28;20264;-77
2024/01/20 09:03:53;;;;;;;8.57;6.30;;;;;;;23.33;100.00;56616.03;5070563;28;20294;-75
2024/01/20 09:06:19;;;;;;;5.18;4.78;;;;;;;-142.91;100.00;56616.03;5066932;28;20289;-76
2024/01/20 09:08:46;;;;;;;6.75;4.50;;;;;;;23.26;100.00;56616.03;5063873;28;20205;-73
2024/01/20 09:11:13;;;;;;;6.20;4.28;;;;;;;23.33;100.00;56616.03;5066790;28;20293;-75
2024/01/20 09:13:41;;;;;;;4.55;4.25;;;;;;;23.33;100.00;56616.03;5069459;28;20229;-75
2024/01/20 09:16:09;;;;;;;5.53;5.03;;;;;;;23.29;100.00;56616.03;5070118;28;20233;-73
2024/01/20 09:18:35;;;;;;;6.50;4.78;;;;;;;-142.91;100.00;56616.03;5068542;28;20279;-77
2024/01/20 09:21:02;;;;;;;5.38;4.57;;;;;;;;;;5067468;28;20652;-73
2024/01/20 09:23:28;;;;;;;7.18;5.47;;;;;;;-142.91;100.00;56616.03;5070306;28;20229;-74
2024/01/20 09:25:55;;;;;;;14.95;8.50;;;;;;;-142.91;100.00;56616.03;5068398;28;20659;-77
2024/01/20 09:28:21;;;;;;;6.93;5.15;;;;;;;-142.91;100.00;56616.03;5069306;28;20210;-79
2024/01/20 09:30:49;;;;;;;5.30;4.78;;;;;;;-142.91;100.00;56616.03;5065723;28;20289;-76
2024/01/20 09:33:16;;;;;;;6.82;5.68;;;;;;;-142.91;100.00;56616.03;5068309;28;20255;-75
2024/01/20 09:35:43;;;;;;;6.82;5.35;;;;;;;-142.91;100.00;56616.03;5057407;28;20752;-76
2024/01/20 09:38:09;;;;;;;6.45;5.65;;;;;;;-142.91;100.00;56616.03;5069673;28;20742;-76
2024/01/20 09:40:36;;;;;;;6.32;5.28;;;;;;;-142.91;100.00;56616.03;5070885;28;20230;-77
2024/01/20 09:43:05;;;;;;;8.63;6.47;;;;;;;-142.91;100.00;56616.03;5073732;28;20600;-78
2024/01/20 09:45:34;;;;;;;6.45;5.45;;;;;;;-142.91;100.00;56616.03;5073760;28;20305;-75
2024/01/20 09:48:02;;;;;;;6.28;5.53;;;;;;;-142.91;100.00;56616.03;5074404;28;20252;-74
2024/01/20 09:50:29;;;;;;;11.88;6.43;;;;;;;-142.91;100.00;56616.03;5074077;28;20263;-75
2024/01/20 09:52:58;;;;;;;5.63;5.18;;;;;;;-142.91;100.00;56616.03;5074351;28;20233;-74
2024/01/20 09:55:27;;;;;;;7.50;5.72;;;;;;;-142.91;100.00;56616.03;5073680;28;20291;-75
2024/01/20 09:57:54;;;;;;;7.30;5.18;;;;;;;-142.91;100.00;56616.03;5074242;28;20237;-75
2024/01/20 10:00:22;;;;;;;9.10;6.60;;;;;;;-142.91;100.00;56616.03;5073866;28;20198;-77
2024/01/20 10:02:48;;;;;;;7.03;6.40;;;;;;;;;;5073877;28;20317;-75
2024/01/20 10:05:17;;;;;;;10.27;7.13;;;;;;;-142.91;100.00;56616.03;5060717;28;20710;-76
2024/01/20 10:07:44;;;;;;;18.85;10.25;;;;;;;-142.91;100.00;56616.03;5074185;28;20289;-75
2024/01/20 10:10:18;;;;;;;12.45;6.20;;;;;;;;;;5073083;28;20230;-76
2024/01/20 10:12:48;;;;;;;5.70;5.07;;;;;;;-142.91;100.00;56616.03;5074223;28;20201;-74
2024/01/20 10:15:15;;;;;;;6.82;6.18;;;;;;;-142.91;100.00;56616.03;5073639;28;20230;-75
2024/01/20 10:17:41;;;;;;;6.20;5.68;;;;;;;-142.91;100.00;56616.03;5073744;28;20286;-74
2024/01/20 10:20:08;;;;;;;6.68;6.15;;;;;;;-142.91;100.00;56616.03;5073361;28;20657;-75
2024/01/20 10:22:36;;;;;;;9.93;6.40;;;;;;;-142.91;100.00;56616.03;5071515;28;20719;-73
2024/01/20 10:25:04;;;;;;;8.13;6.20;;;;;;;-142.91;100.00;56616.03;5072068;28;20285;-75
2024/01/20 10:27:31;;;;;;;6.90;5.72;;;;;;;-142.91;100.00;56616.03;5069066;28;20297;-73
2024/01/20 10:29:57;;;;;;;9.00;6.65;;;;;;;-142.91;100.00;56616.03;5070820;28;20479;-75
2024/01/20 10:32:24;;;;;;;7.45;6.22;;;;;;;;;;5071835;28;20281;-73
2024/01/20 10:34:50;;;;;;;5.90;5.32;;;;;;;-142.91;100.00;56616.03;5071673;28;20205;-75
2024/01/20 10:37:21;;;;;;;8.35;7.32;;;;;;;-142.91;100.00;56616.03;5071243;28;20714;-76
2024/01/20 10:39:51;;;;;;;8.02;6.13;;;;;;;-142.91;100.00;56616.03;5064198;28;20268;-73
2024/01/20 10:42:20;;;;;;;7.35;6.53;;;;;;;-142.91;100.00;56616.03;5071319;28;20309;-76
2024/01/20 10:44:54;;;;;;;12.25;7.28;;;;;;;-142.91;100.00;56616.03;5072804;28;20206;-75
2024/01/20 10:47:30;;;;;;;7.65;6.70;;;;;;;-142.91;100.00;56616.03;5072009;28;20631;-74
2024/01/20 10:50:04;;;;;;;7.78;6.32;;;;;;;-142.91;100.00;56616.03;5072428;28;20264;-75
2024/01/20 10:52:33;;;;;;;6.82;6.22;;;;;;;-142.91;100.00;56616.03;5078049;28;20579;-76
2024/01/20 10:55:03;;;;;;;8.70;6.28;;;;;;;23.25;100.00;56616.03;5079505;28;20289;-74
2024/01/20 10:57:29;;;;;;;8.98;7.47;;;;;;;23.25;100.00;56616.03;5060311;28;20230;-74
2024/01/20 10:59:58;;;;;;;15.88;9.13;;;;;;;-142.91;100.00;56616.03;5072498;28;20237;-73
2024/01/20 11:02:26;;;;;;;9.23;7.57;;;;;;;-142.91;100.00;56616.03;5073257;28;20222;-75
2024/01/20 11:04:53;;;;;;;13.85;7.97;;;;;;;-142.91;100.00;56616.03;5072668;28;20205;-75
2024/01/20 11:07:22;;;;;;;12.30;7.20;;;;;;;23.41;100.00;56616.03;5073233;28;20248;-75
2024/01/20 11:09:56;;;;;;;12.85;7.32;;;;;;;-142.91;100.00;56616.03;5072266;28;20690;-74
2024/01/20 11:12:24;;;;;;;8.00;6.72;;;;;;;-142.91;100.00;56616.03;5072563;28;20252;-74
2024/01/20 11:14:52;;;;;;;7.13;6.32;;;;;;;23.25;100.00;56616.03;5072163;28;20243;-75
2024/01/20 11:17:19;;;;;;;8.15;5.95;;;;;;;;;;5073025;28;20206;-74
2024/01/20 11:19:45;;;;;;;8.93;7.30;;;;;;;;;;5071623;28;20241;-75
2024/01/20 11:22:32;;;;;;;7.20;6.30;;;;;;;-142.91;100.00;56616.03;5072455;28;20233;-75
2024/01/20 11:24:58;;;;;;;7.00;6.28;;;;;;;;;;5071700;28;20203;-75
2024/01/20 11:27:26;;;;;;;9.35;7.53;;;;;;;23.33;100.00;56616.03;5070924;28;20238;-74
2024/01/20 11:30:04;;;;;;;8.68;7.20;;;;;;;23.27;100.00;56616.03;5060478;28;20202;-75